createdAt,value
2019-04-22T00:00:35.997Z,48.8014
2019-04-22T00:01:36.913Z,49.0944
2019-04-22T00:02:50.142Z,48.9662
2019-04-22T00:03:55.202Z,48.7816
2019-04-22T00:05:07.236Z,48.8380
2019-04-22T00:06:25.883Z,48.8563
2019-04-22T00:07:38.894Z,47.3274
2019-04-22T00:10:00.624Z,48.0873
2019-04-22T00:11:03.206Z,48.1834
2019-04-22T00:12:13.767Z,48.4382
2019-04-22T00:13:26.220Z,48.3116
2019-04-22T00:14:24.906Z,48.6503
2019-04-22T00:15:28.076Z,48.5939
2019-04-22T00:16:47.283Z,48.6076
2019-04-22T00:18:07.423Z,48.1407
2019-04-22T00:20:08.630Z,48.5405
2019-04-22T00:21:19.734Z,48.3696
2019-04-22T00:22:23.854Z,48.6213
2019-04-22T00:23:31.663Z,48.8273
2019-04-22T00:24:38.139Z,48.7968
2019-04-22T00:25:50.772Z,48.4977
2019-04-22T00:26:59.613Z,48.6122
2019-04-22T00:28:02.318Z,49.0196
2019-04-22T00:29:36.031Z,49.3767
2019-04-22T00:30:21.969Z,50.0740
2019-04-22T00:31:26.847Z,50.1869
2019-04-22T00:32:32.288Z,50.2892
2019-04-22T00:33:39.322Z,50.0740
2019-04-22T00:34:51.657Z,50.0237
2019-04-22T00:35:55.181Z,50.0053
2019-04-22T00:37:07.920Z,49.5369
2019-04-22T00:38:17.302Z,49.2805
2019-04-22T00:39:31.650Z,49.5323
2019-04-22T00:40:33.906Z,49.9718
2019-04-22T00:41:43.986Z,49.8405
2019-04-22T00:42:47.184Z,49.9168
2019-04-22T00:44:00.403Z,49.0578
2019-04-22T00:45:08.271Z,49.1035
2019-04-22T00:46:11.320Z,49.2821
2019-04-22T00:47:26.690Z,49.5109
2019-04-22T00:48:27.559Z,49.9397
2019-04-22T00:50:06.323Z,50.1137
2019-04-22T00:50:46.350Z,50.7134
2019-04-22T00:51:58.278Z,51.0124
2019-04-22T00:53:04.627Z,51.0109
2019-04-22T00:54:06.031Z,51.4137
2019-04-22T00:56:35.275Z,52.3980
2019-04-22T00:58:41.255Z,52.7794
2019-04-22T00:59:50.794Z,53.0083
2019-04-22T01:00:57.083Z,53.2876
2019-04-22T01:02:07.590Z,53.5515
2019-04-22T01:03:16.159Z,53.3425
2019-04-22T01:04:31.549Z,53.9788
2019-04-22T01:05:27.905Z,53.9147
2019-04-22T01:06:35.886Z,54.5678
2019-04-22T01:07:46.429Z,55.0637
2019-04-22T01:09:58.500Z,55.9426
2019-04-22T01:11:13.414Z,56.1532
2019-04-22T01:12:15.541Z,56.6049
2019-04-22T01:13:24.862Z,56.7376
2019-04-22T01:14:29.882Z,56.8887
2019-04-22T01:15:40.826Z,57.4578
2019-04-22T01:16:50.501Z,57.7310
2019-04-22T01:17:56.231Z,57.6806
2019-04-22T01:19:00.463Z,57.8790
2019-04-22T01:20:25.755Z,57.5311
2019-04-22T01:21:36.914Z,57.8058
2019-04-22T01:22:21.801Z,58.0346
2019-04-22T01:23:28.247Z,58.2086
2019-04-22T01:24:38.638Z,58.2025
2019-04-22T01:25:46.402Z,58.5748
2019-04-22T01:26:52.297Z,57.9980
2019-04-22T01:27:57.216Z,58.0804
2019-04-22T01:29:02.463Z,57.9019
2019-04-22T01:30:10.927Z,57.9522
2019-04-22T01:31:13.538Z,57.7813
2019-04-22T01:32:21.634Z,57.6410
2019-04-22T01:33:29.379Z,57.5113
2019-04-22T01:34:49.349Z,57.8134
2019-04-22T01:35:58.434Z,57.5723
2019-04-22T01:37:03.401Z,57.4166
2019-04-22T01:38:11.975Z,57.5265
2019-04-22T01:39:25.460Z,56.9131
2019-04-22T01:40:40.511Z,56.7941
2019-04-22T01:41:48.924Z,56.4218
2019-04-22T01:42:56.252Z,55.4192
2019-04-22T01:44:10.628Z,54.2290
2019-04-22T01:45:12.447Z,54.5403
2019-04-22T01:46:21.362Z,54.1207
2019-04-22T01:47:25.127Z,54.2214
2019-04-22T01:48:32.493Z,54.2199
2019-04-22T01:49:40.231Z,54.3847
2019-04-22T01:50:46.166Z,54.4320
2019-04-22T01:51:59.750Z,54.5922
2019-04-22T01:53:06.314Z,54.6654
2019-04-22T01:54:14.627Z,54.9386
2019-04-22T01:55:28.827Z,55.2544
2019-04-22T01:56:28.592Z,55.1324
2019-04-22T01:57:34.970Z,55.2880
2019-04-22T01:58:38.253Z,55.4147
2019-04-22T01:59:40.389Z,55.6725
2019-04-22T02:01:00.150Z,55.6298
2019-04-22T02:02:09.207Z,55.8267
2019-04-22T02:03:17.597Z,56.0601
2019-04-22T02:04:30.298Z,55.6451
2019-04-22T02:05:31.530Z,55.5581
2019-04-22T02:06:43.968Z,55.3735
2019-04-22T02:07:51.647Z,55.2773
2019-04-22T02:09:00.596Z,55.5810
2019-04-22T02:10:02.230Z,55.4742
2019-04-22T02:11:24.123Z,55.5032
2019-04-22T02:12:19.913Z,56.0250
2019-04-22T02:13:30.812Z,55.7992
2019-04-22T02:14:39.609Z,55.6710
2019-04-22T02:15:50.100Z,55.5398
2019-04-22T02:16:58.028Z,55.2605
2019-04-22T02:18:01.259Z,55.2773
2019-04-22T02:19:11.212Z,55.2926
2019-04-22T02:20:32.218Z,54.9447
2019-04-22T02:21:20.173Z,54.9264
2019-04-22T02:22:50.065Z,54.9859
2019-04-22T02:23:47.056Z,55.6130
2019-04-22T02:25:09.472Z,55.5947
2019-04-22T02:27:15.025Z,55.1324
2019-04-22T02:29:26.342Z,54.9584
2019-04-22T02:30:37.258Z,54.9615
2019-04-22T02:31:59.434Z,54.4778
2019-04-22T02:36:30.104Z,54.6548
2019-04-22T02:37:18.778Z,54.6548
2019-04-22T02:38:47.100Z,54.3679
2019-04-22T02:39:38.335Z,54.3893
2019-04-22T02:41:08.794Z,54.3542
2019-04-22T02:41:52.815Z,54.1344
2019-04-22T02:43:01.691Z,54.3954
2019-04-22T02:45:18.283Z,54.1421
2019-04-22T02:48:53.336Z,54.0566
2019-04-22T02:49:47.112Z,54.1115
2019-04-22T02:51:06.186Z,54.0230
2019-04-22T02:52:06.418Z,53.7987
2019-04-22T02:53:36.553Z,54.0734
2019-04-22T02:58:00.889Z,53.9086
2019-04-22T02:59:09.478Z,54.2840
2019-04-22T03:00:05.570Z,54.1878
2019-04-22T03:02:19.617Z,54.0108
2019-04-22T03:03:41.655Z,54.0322
2019-04-22T03:04:35.744Z,53.8094
2019-04-22T03:06:07.429Z,53.8399
2019-04-22T03:06:56.101Z,54.0597
2019-04-22T03:10:41.848Z,53.6568
2019-04-22T03:11:31.120Z,53.7301
2019-04-22T03:12:29.421Z,53.6660
2019-04-22T03:13:47.331Z,54.0291
2019-04-22T03:16:11.622Z,53.5882
2019-04-22T03:17:03.479Z,53.6980
2019-04-22T03:19:43.431Z,53.4783
2019-04-22T03:20:29.138Z,53.4783
2019-04-22T03:21:36.711Z,53.2235
2019-04-22T03:26:27.257Z,53.8308
2019-04-22T03:28:33.012Z,53.4340
2019-04-22T03:29:44.534Z,53.0571
2019-04-22T03:32:17.494Z,53.7163
2019-04-22T03:33:11.989Z,53.5378
2019-04-22T03:35:37.398Z,52.5093
2019-04-22T03:36:58.260Z,52.6268
2019-04-22T03:39:01.406Z,52.6497
2019-04-22T03:39:59.380Z,52.1385
2019-04-22T03:40:52.669Z,52.5734
2019-04-22T03:46:34.788Z,52.5505
2019-04-22T03:47:52.941Z,52.4132
2019-04-22T03:49:03.862Z,52.4315
2019-04-22T03:50:04.599Z,52.1828
2019-04-22T03:51:07.521Z,52.3110
2019-04-22T03:53:33.057Z,52.8283
2019-04-22T03:55:41.229Z,52.0363
2019-04-22T03:59:13.121Z,52.2515
2019-04-22T04:01:32.039Z,52.1202
2019-04-22T04:02:35.726Z,51.9951
2019-04-22T04:03:30.616Z,52.2164
2019-04-22T04:04:37.113Z,52.0684
2019-04-22T04:08:16.405Z,52.3064
2019-04-22T04:09:19.340Z,51.8898
2019-04-22T04:10:32.234Z,52.0607
2019-04-22T04:11:38.398Z,51.7678
2019-04-22T04:12:41.609Z,51.8135
2019-04-22T04:15:14.087Z,52.9747
2019-04-22T04:15:57.679Z,52.3766
2019-04-22T04:18:13.341Z,52.0867
2019-04-22T04:19:35.961Z,52.2713
2019-04-22T04:26:17.416Z,52.2896
2019-04-22T04:27:49.132Z,52.4224
2019-04-22T04:30:40.054Z,52.5368
2019-04-22T04:34:20.057Z,52.8649
2019-04-22T04:36:28.741Z,52.6421
2019-04-22T04:39:26.455Z,52.6650
2019-04-22T04:39:53.161Z,52.9747
2019-04-22T04:41:00.418Z,52.9946
2019-04-22T04:42:16.203Z,52.9351
2019-04-22T04:45:38.242Z,53.2647
2019-04-22T04:46:44.768Z,53.3791
2019-04-22T04:49:02.682Z,53.0022
2019-04-22T04:51:16.025Z,52.7474
2019-04-22T04:54:35.580Z,53.8781
2019-04-22T04:55:34.975Z,53.8903
2019-04-22T04:56:46.552Z,53.8628
2019-04-22T04:59:16.994Z,53.8354
2019-04-22T05:01:23.348Z,53.9406
2019-04-22T05:02:41.019Z,54.3725
2019-04-22T05:03:48.864Z,54.0703
2019-04-22T05:04:56.722Z,54.1924
2019-04-22T05:06:03.500Z,54.6288
2019-04-22T05:09:59.645Z,53.5622
2019-04-22T05:10:47.534Z,53.6767
2019-04-22T05:12:55.639Z,53.8399
2019-04-22T05:14:07.152Z,54.0063
2019-04-22T05:15:00.895Z,53.8460
2019-04-22T05:16:17.560Z,53.7026
2019-04-22T05:17:12.899Z,52.9992
2019-04-22T05:19:26.125Z,53.1899
2019-04-22T05:20:46.164Z,52.7520
2019-04-22T05:21:39.644Z,53.1853
2019-04-22T05:22:44.486Z,53.1762
2019-04-22T05:24:02.712Z,53.0343
2019-04-22T05:25:04.832Z,53.1365
2019-04-22T05:28:48.154Z,53.2769
2019-04-22T05:29:55.440Z,53.4844
2019-04-22T05:30:39.465Z,53.3364
2019-04-22T05:31:56.869Z,53.2784
2019-04-22T05:33:14.019Z,53.5836
2019-04-22T05:34:09.588Z,53.5714
2019-04-22T05:35:14.452Z,53.8354
2019-04-22T05:37:37.950Z,53.6812
2019-04-22T05:38:53.670Z,53.8003
2019-04-22T05:39:49.580Z,53.5515
2019-04-22T05:40:56.558Z,53.9727
2019-04-22T05:42:10.406Z,53.5119
2019-04-22T05:43:07.993Z,53.8857
2019-04-22T05:44:34.405Z,54.0368
2019-04-22T05:45:40.299Z,53.8582
2019-04-22T05:46:34.503Z,53.5256
2019-04-22T05:47:46.177Z,54.0658
2019-04-22T05:48:53.773Z,53.8811
2019-04-22T05:49:48.307Z,54.4274
2019-04-22T05:51:27.128Z,54.5647
2019-04-22T05:52:14.841Z,54.2123
2019-04-22T05:53:20.104Z,54.8013
2019-04-22T05:54:34.721Z,54.6654
2019-04-22T05:55:41.531Z,54.1207
2019-04-22T05:56:40.987Z,53.2723
2019-04-22T05:57:57.701Z,53.2143
2019-04-22T05:59:04.380Z,53.5973
2019-04-22T06:00:13.885Z,52.8008
2019-04-22T06:02:43.536Z,51.9905
2019-04-22T06:03:37.673Z,51.5419
2019-04-22T06:04:48.523Z,51.2856
2019-04-22T06:05:47.886Z,51.4290
2019-04-22T06:06:53.571Z,51.8227
2019-04-22T06:08:04.102Z,51.1711
2019-04-22T06:09:22.452Z,51.0750
2019-04-22T06:10:29.355Z,50.8843
2019-04-22T06:11:29.845Z,50.6645
2019-04-22T06:12:31.469Z,51.0246
2019-04-22T06:13:38.885Z,50.8782
2019-04-22T06:14:55.693Z,50.7469
2019-04-22T06:15:58.996Z,50.6355
2019-04-22T06:17:10.679Z,50.5089
2019-04-22T06:19:27.882Z,50.2968
2019-04-22T06:20:37.087Z,50.3563
2019-04-22T06:21:46.185Z,50.0374
2019-04-22T06:22:57.109Z,50.1549
2019-04-22T06:24:05.138Z,50.1244
2019-04-22T06:25:17.191Z,50.0969
2019-04-22T06:26:19.512Z,50.1137
2019-04-22T06:28:50.087Z,49.9535
2019-04-22T06:29:37.013Z,50.4906
2019-04-22T06:30:53.486Z,49.9001
2019-04-22T06:32:17.462Z,49.8405
2019-04-22T06:33:08.524Z,50.0816
2019-04-22T06:34:17.798Z,49.8390
2019-04-22T06:35:29.744Z,49.8177
2019-04-22T06:36:31.057Z,49.7108
2019-04-22T06:37:43.318Z,50.1778
2019-04-22T06:39:01.611Z,50.2205
2019-04-22T06:39:55.532Z,50.2876
2019-04-22T06:41:04.274Z,50.3334
2019-04-22T06:43:16.270Z,49.9947
2019-04-22T06:44:24.100Z,50.3532
2019-04-22T06:45:44.991Z,50.3075
2019-04-22T06:46:39.657Z,50.3899
2019-04-22T06:48:57.281Z,49.9092
2019-04-22T06:50:07.590Z,49.8177
2019-04-22T06:51:14.689Z,49.6788
2019-04-22T06:52:19.620Z,49.6605
2019-04-22T06:53:29.708Z,49.8589
2019-04-22T06:54:40.670Z,50.0282
2019-04-22T06:55:48.204Z,50.5165
2019-04-22T06:56:54.662Z,50.3838
2019-04-22T06:57:58.138Z,50.3517
2019-04-22T06:59:06.888Z,50.2892
2019-04-22T07:00:19.386Z,49.6696
2019-04-22T07:02:47.168Z,48.8655
2019-04-22T07:04:55.156Z,49.1402
2019-04-22T07:05:59.543Z,49.3446
2019-04-22T07:07:08.348Z,48.7831
2019-04-22T07:08:30.699Z,49.1615
2019-04-22T07:11:37.924Z,49.7810
2019-04-22T07:12:47.209Z,49.4057
2019-04-22T07:14:00.085Z,49.8024
2019-04-22T07:15:02.775Z,49.9962
2019-04-22T07:16:05.101Z,49.5933
2019-04-22T07:17:15.935Z,50.4311
2019-04-22T07:19:33.640Z,50.5348
2019-04-22T07:20:45.879Z,50.9621
2019-04-22T07:21:50.620Z,51.0018
2019-04-22T07:23:06.797Z,51.2322
2019-04-22T07:24:21.249Z,51.3313
2019-04-22T07:25:10.286Z,51.4641
2019-04-22T07:26:20.341Z,51.9081
2019-04-22T07:27:27.791Z,51.9265
2019-04-22T07:28:34.407Z,51.9722
2019-04-22T07:29:46.985Z,51.9051
2019-04-22T07:30:54.530Z,52.0455
2019-04-22T07:32:04.729Z,51.9677
2019-04-22T07:33:31.299Z,52.3445
2019-04-22T07:34:19.736Z,52.4163
2019-04-22T07:35:28.862Z,52.1599
2019-04-22T07:36:45.676Z,52.5582
2019-04-22T07:38:43.913Z,52.0546
2019-04-22T07:39:50.190Z,51.6304
2019-04-22T07:40:59.312Z,51.5801
2019-04-22T07:42:16.755Z,51.6976
2019-04-22T07:43:29.185Z,52.4315
2019-04-22T07:44:31.192Z,52.2621
2019-04-22T07:45:36.069Z,52.1202
2019-04-22T07:46:54.257Z,51.7082
2019-04-22T07:48:04.008Z,50.8659
2019-04-22T07:49:02.984Z,51.2261
2019-04-22T07:50:22.830Z,51.3375
2019-04-22T07:52:22.533Z,51.7617
2019-04-22T07:53:28.886Z,51.7998
2019-04-22T07:54:41.640Z,51.9921
2019-04-22T07:55:47.526Z,51.6258
2019-04-22T07:57:02.670Z,51.6579
2019-04-22T07:58:07.373Z,51.4733
2019-04-22T07:59:15.598Z,51.6701
2019-04-22T08:00:22.699Z,51.5709
2019-04-22T08:01:26.690Z,51.5938
2019-04-22T08:02:37.893Z,51.3832
2019-04-22T08:04:15.225Z,50.9010
2019-04-22T08:06:11.684Z,49.6254
2019-04-22T08:07:14.362Z,49.7658
2019-04-22T08:08:21.219Z,49.5964
2019-04-22T08:09:34.073Z,49.9763
2019-04-22T08:10:29.800Z,49.8894
2019-04-22T08:11:55.320Z,50.0282
2019-04-22T08:13:51.256Z,48.7678
2019-04-22T08:15:05.657Z,48.9204
2019-04-22T08:16:10.562Z,49.2119
2019-04-22T08:17:45.149Z,49.2348
2019-04-22T08:18:37.429Z,49.0883
2019-04-22T08:19:53.942Z,49.0288
2019-04-22T08:20:58.698Z,48.6992
2019-04-22T08:21:50.722Z,48.9647
2019-04-22T08:23:04.839Z,48.9189
2019-04-22T08:24:13.073Z,48.1086
2019-04-22T08:25:20.386Z,48.2872
2019-04-22T08:26:28.393Z,48.3024
2019-04-22T08:27:33.456Z,48.1056
2019-04-22T08:28:46.505Z,48.0446
2019-04-22T08:29:58.596Z,47.8889
2019-04-22T08:30:59.673Z,46.4469
2019-04-22T08:32:05.085Z,46.1967
2019-04-22T08:33:15.883Z,45.9953
2019-04-22T08:35:49.083Z,45.1881
2019-04-22T08:37:51.170Z,44.8783
2019-04-22T08:39:00.674Z,44.6983
2019-04-22T08:40:09.509Z,44.7257
2019-04-22T08:41:16.453Z,44.2466
2019-04-22T08:42:27.192Z,43.7430
2019-04-22T08:43:36.457Z,43.8422
2019-04-22T08:44:52.038Z,43.6866
2019-04-22T08:45:56.939Z,43.3982
2019-04-22T08:46:56.131Z,43.1296
2019-04-22T08:47:59.171Z,41.9120
2019-04-22T08:49:05.637Z,42.0981
2019-04-22T08:50:14.100Z,42.3087
2019-04-22T08:52:54.883Z,41.7548
2019-04-22T08:53:45.172Z,42.0401
2019-04-22T08:54:50.287Z,42.0310
2019-04-22T08:56:10.902Z,42.4872
2019-04-22T08:57:06.662Z,42.2858
2019-04-22T08:58:20.280Z,42.1485
2019-04-22T08:59:34.286Z,41.9120
2019-04-22T09:00:34.194Z,41.3108
2019-04-22T09:01:36.079Z,41.4343
2019-04-22T09:02:52.192Z,41.6556
2019-04-22T09:03:52.371Z,41.6632
2019-04-22T09:04:53.773Z,41.5900
2019-04-22T09:06:15.266Z,42.1210
2019-04-22T09:07:20.931Z,41.0422
2019-04-22T09:08:26.286Z,41.2329
2019-04-22T09:09:36.277Z,41.7517
2019-04-22T09:10:54.137Z,40.5432
2019-04-22T09:11:46.978Z,39.8550
2019-04-22T09:14:01.678Z,39.7314
2019-04-22T09:15:11.275Z,40.2594
2019-04-22T09:16:27.967Z,40.4837
2019-04-22T09:17:27.813Z,40.3265
2019-04-22T09:18:39.869Z,41.1734
2019-04-22T09:19:40.561Z,40.4654
2019-04-22T09:20:57.305Z,40.7477
2019-04-22T09:22:00.391Z,40.4425
2019-04-22T09:23:12.898Z,40.1038
2019-04-22T09:24:16.059Z,40.0488
2019-04-22T09:25:26.966Z,39.5987
2019-04-22T09:26:41.896Z,39.7147
2019-04-22T09:27:59.469Z,39.9619
2019-04-22T09:28:52.357Z,39.5178
2019-04-22T09:29:58.444Z,39.8779
2019-04-22T09:31:06.629Z,40.1404
2019-04-22T09:32:15.343Z,39.4675
2019-04-22T09:33:20.383Z,39.8871
2019-04-22T09:34:32.007Z,39.4934
2019-04-22T09:35:41.418Z,39.1836
2019-04-22T09:36:42.049Z,38.7976
2019-04-22T09:38:00.250Z,39.0738
2019-04-22T09:39:02.894Z,39.2554
2019-04-22T09:40:13.073Z,39.3851
2019-04-22T09:41:15.212Z,39.1775
2019-04-22T09:42:24.636Z,39.3668
2019-04-22T09:43:32.238Z,38.8571
2019-04-22T09:44:41.975Z,38.6374
2019-04-22T09:45:47.929Z,38.9029
2019-04-22T09:46:57.932Z,39.0677
2019-04-22T09:48:09.860Z,39.1638
2019-04-22T09:49:12.090Z,39.4080
2019-04-22T09:50:24.190Z,39.2157
2019-04-22T09:51:25.342Z,38.6374
2019-04-22T09:52:37.531Z,38.0835
2019-04-22T09:53:47.196Z,38.9258
2019-04-22T09:55:57.221Z,39.5026
2019-04-22T09:57:12.053Z,38.8357
2019-04-22T09:58:21.281Z,38.8907
2019-04-22T09:59:20.669Z,38.6893
2019-04-22T10:00:37.646Z,39.1959
2019-04-22T10:02:59.264Z,40.2441
2019-04-22T10:05:08.667Z,40.4044
2019-04-22T10:06:22.854Z,40.7950
2019-04-22T10:07:20.967Z,40.7858
2019-04-22T10:08:32.010Z,40.3265
2019-04-22T10:10:01.482Z,38.5977
2019-04-22T10:10:51.625Z,38.8632
2019-04-22T10:11:50.916Z,39.6506
2019-04-22T10:13:06.401Z,39.5819
2019-04-22T10:15:14.981Z,39.4293
2019-04-22T10:17:32.212Z,39.0646
2019-04-22T10:18:43.619Z,39.0280
2019-04-22T10:19:48.011Z,38.8891
2019-04-22T10:21:02.955Z,37.8317
2019-04-22T10:22:08.558Z,37.2854
2019-04-22T10:23:17.580Z,37.3083
2019-04-22T10:24:21.586Z,37.1038
2019-04-22T10:25:29.856Z,36.7727
2019-04-22T10:26:39.158Z,36.0510
2019-04-22T10:27:51.316Z,36.5866
2019-04-22T10:29:00.781Z,36.2249
2019-04-22T10:30:00.258Z,36.5072
2019-04-22T10:31:09.926Z,36.6445
2019-04-22T10:32:14.841Z,35.4650
2019-04-22T10:33:24.018Z,36.0998
2019-04-22T10:34:16.794Z,36.0220
2019-04-22T10:35:19.243Z,35.3643
2019-04-22T10:36:23.618Z,34.6487
2019-04-22T10:37:26.404Z,35.1125
2019-04-22T10:38:30.416Z,34.7921
2019-04-22T10:39:42.269Z,35.0668
2019-04-22T10:40:42.721Z,34.7051
2019-04-22T10:41:46.488Z,34.9645
2019-04-22T10:42:49.506Z,35.1629
2019-04-22T10:43:52.934Z,34.7173
2019-04-22T10:44:57.289Z,33.9803
2019-04-22T10:46:00.288Z,34.3603
2019-04-22T10:47:04.219Z,34.1039
2019-04-22T10:48:08.224Z,31.5816
2019-04-22T10:49:12.536Z,32.2606
2019-04-22T10:50:16.490Z,32.3232
2019-04-22T10:51:19.310Z,31.9112
2019-04-22T10:52:23.651Z,31.1116
2019-04-22T10:53:26.326Z,30.3380
2019-04-22T10:54:29.536Z,30.6020
2019-04-22T10:55:32.319Z,31.0979
2019-04-22T10:56:35.293Z,31.0475
2019-04-22T10:57:38.998Z,31.3588
2019-04-22T10:58:42.648Z,32.1309
2019-04-22T10:59:45.275Z,30.4372
2019-04-22T11:00:49.893Z,30.4662
2019-04-22T11:01:54.820Z,29.2210
2019-04-22T11:02:58.286Z,29.2287
2019-04-22T11:04:01.544Z,30.2129
2019-04-22T11:05:04.311Z,30.4570
2019-04-22T11:06:07.516Z,29.2119
2019-04-22T11:07:12.781Z,28.7572
2019-04-22T11:08:25.637Z,30.0542
2019-04-22T11:09:25.256Z,30.5028
2019-04-22T11:10:44.547Z,30.2403
2019-04-22T11:11:46.618Z,30.4799
2019-04-22T11:12:45.106Z,29.4682
2019-04-22T11:13:49.526Z,29.0608
2019-04-22T11:14:53.745Z,29.7612
2019-04-22T11:15:58.460Z,31.0277
2019-04-22T11:17:03.391Z,31.5038
2019-04-22T11:18:07.471Z,31.0964
2019-04-22T11:19:11.767Z,31.1238
2019-04-22T11:20:15.584Z,31.9814
2019-04-22T11:21:19.810Z,31.8898
2019-04-22T11:22:28.525Z,31.7464
2019-04-22T11:23:32.396Z,32.8817
2019-04-22T11:24:36.857Z,33.0022
2019-04-22T11:25:41.602Z,33.2128
2019-04-22T11:26:45.287Z,34.1314
2019-04-22T11:27:49.403Z,33.8155
2019-04-22T11:28:53.802Z,34.1970
2019-04-22T11:29:57.477Z,34.4106
2019-04-22T11:31:00.808Z,34.6578
2019-04-22T11:32:04.400Z,34.8745
2019-04-22T11:33:08.578Z,35.3368
2019-04-22T11:34:11.281Z,35.4086
2019-04-22T11:35:14.316Z,35.7885
2019-04-22T11:36:17.772Z,35.5932
2019-04-22T11:37:22.424Z,36.1502
2019-04-22T11:38:26.797Z,35.9503
2019-04-22T11:39:32.799Z,35.7626
2019-04-22T11:40:42.193Z,35.8587
2019-04-22T11:41:46.509Z,35.5184
2019-04-22T11:42:50.279Z,35.7122
2019-04-22T11:43:53.629Z,34.5907
2019-04-22T11:44:57.139Z,34.0352
2019-04-22T11:46:00.306Z,34.2473
2019-04-22T11:47:03.488Z,34.2702
2019-04-22T11:48:06.290Z,34.3008
2019-04-22T11:49:09.871Z,34.1360
2019-04-22T11:50:13.331Z,34.0002
2019-04-22T11:51:16.293Z,34.0139
2019-04-22T11:52:20.504Z,34.3984
2019-04-22T11:53:24.730Z,33.6568
2019-04-22T11:54:28.643Z,32.8786
2019-04-22T11:55:32.600Z,33.1930
2019-04-22T11:56:36.921Z,32.7733
2019-04-22T11:57:41.369Z,32.4392
2019-04-22T11:58:44.584Z,32.8695
2019-04-22T11:59:46.973Z,33.0510
2019-04-22T12:00:51.954Z,33.2906
2019-04-22T12:01:57.004Z,33.3501
2019-04-22T12:03:00.851Z,32.6772
2019-04-22T12:04:04.365Z,33.4691
2019-04-22T12:05:07.950Z,34.0352
2019-04-22T12:06:11.336Z,33.7026
2019-04-22T12:07:15.087Z,33.5042
2019-04-22T12:08:18.305Z,33.4188
2019-04-22T12:09:21.577Z,33.7102
2019-04-22T12:10:34.465Z,33.2204
2019-04-22T12:11:34.493Z,32.1416
2019-04-22T12:12:37.295Z,32.5948
2019-04-22T12:13:40.322Z,33.2631
2019-04-22T12:14:43.344Z,33.5271
2019-04-22T12:15:46.755Z,32.6619
2019-04-22T12:16:50.364Z,33.3730
2019-04-22T12:17:53.356Z,34.2962
2019-04-22T12:18:58.532Z,33.8125
2019-04-22T12:20:05.599Z,32.5429
2019-04-22T12:21:10.968Z,33.3669
2019-04-22T12:22:15.351Z,34.0810
2019-04-22T12:23:19.024Z,34.2290
2019-04-22T12:24:23.509Z,33.7026
2019-04-22T12:25:34.800Z,33.0373
2019-04-22T12:26:35.291Z,33.3852
2019-04-22T12:27:38.988Z,33.6507
2019-04-22T12:28:42.286Z,32.8496
2019-04-22T12:29:45.368Z,33.3913
2019-04-22T12:30:49.317Z,32.4880
2019-04-22T12:31:53.521Z,32.8176
2019-04-22T12:32:58.134Z,31.5358
2019-04-22T12:34:01.503Z,30.9468
2019-04-22T12:35:05.267Z,31.8669
2019-04-22T12:36:08.593Z,32.7581
2019-04-22T12:37:17.421Z,32.0989
2019-04-22T12:38:20.228Z,31.2749
2019-04-22T12:39:23.339Z,32.1080
2019-04-22T12:40:37.421Z,32.2698
2019-04-22T12:41:34.310Z,33.1167
2019-04-22T12:42:37.644Z,32.5978
2019-04-22T12:43:41.010Z,32.5536
2019-04-22T12:44:45.837Z,32.3522
2019-04-22T12:45:50.381Z,33.1533
2019-04-22T12:46:54.504Z,33.4310
2019-04-22T12:47:57.907Z,33.5912
2019-04-22T12:49:00.378Z,32.7779
2019-04-22T12:50:12.700Z,32.6665
2019-04-22T12:51:11.301Z,32.3140
2019-04-22T12:52:24.341Z,32.7092
2019-04-22T12:53:25.694Z,32.8679
2019-04-22T12:54:31.113Z,32.5063
2019-04-22T12:55:34.452Z,32.9976
2019-04-22T12:56:37.613Z,32.8954
2019-04-22T12:57:40.843Z,32.3323
2019-04-22T12:58:45.585Z,32.7169
2019-04-22T12:59:49.832Z,33.0800
2019-04-22T13:00:54.569Z,32.7504
2019-04-22T13:01:58.577Z,33.0144
2019-04-22T13:03:01.357Z,33.2204
2019-04-22T13:04:09.409Z,33.5821
2019-04-22T13:05:12.493Z,33.5195
2019-04-22T13:06:15.279Z,33.3455
2019-04-22T13:07:19.775Z,34.1695
2019-04-22T13:08:23.541Z,34.1405
2019-04-22T13:09:27.503Z,33.9620
2019-04-22T13:10:42.980Z,33.8750
2019-04-22T13:11:38.863Z,33.5821
2019-04-22T13:12:44.485Z,32.8588
2019-04-22T13:13:47.324Z,33.3806
2019-04-22T13:14:50.717Z,33.6706
2019-04-22T13:15:54.959Z,33.8796
2019-04-22T13:16:59.679Z,33.8125
2019-04-22T13:18:12.862Z,33.8201
2019-04-22T13:19:12.942Z,33.9712
2019-04-22T13:20:20.148Z,33.4371
2019-04-22T13:21:24.656Z,33.6095
2019-04-22T13:22:27.268Z,33.6599
2019-04-22T13:23:31.673Z,33.9162
2019-04-22T13:24:36.169Z,33.3913
2019-04-22T13:25:40.821Z,32.7398
2019-04-22T13:26:45.264Z,32.2637
2019-04-22T13:27:49.097Z,32.0073
2019-04-22T13:28:52.298Z,32.9198
2019-04-22T13:29:55.302Z,32.3293
2019-04-22T13:31:01.416Z,32.0684
2019-04-22T13:32:06.735Z,31.7891
2019-04-22T13:33:10.752Z,32.0455
2019-04-22T13:34:21.577Z,31.6518
2019-04-22T13:35:24.112Z,32.2362
2019-04-22T13:36:30.286Z,32.1462
2019-04-22T13:37:35.030Z,32.4254
2019-04-22T13:38:38.733Z,32.3339
2019-04-22T13:39:41.356Z,31.8013
2019-04-22T13:40:57.812Z,31.4260
2019-04-22T13:41:59.586Z,32.4254
2019-04-22T13:43:00.759Z,31.6503
2019-04-22T13:44:04.978Z,31.2490
2019-04-22T13:45:09.537Z,32.0348
2019-04-22T13:46:12.501Z,31.8105
2019-04-22T13:47:32.628Z,31.5267
2019-04-22T13:48:38.794Z,31.1879
2019-04-22T13:52:20.696Z,31.7830
2019-04-22T13:53:42.608Z,31.5496
2019-04-22T13:54:51.075Z,31.0231
2019-04-22T13:55:41.464Z,31.6701
2019-04-22T13:56:43.150Z,31.4076
2019-04-22T13:57:47.117Z,31.3039
2019-04-22T13:58:52.453Z,31.0048
2019-04-22T13:59:52.363Z,31.4000
2019-04-22T14:00:56.444Z,31.4443
2019-04-22T14:02:00.740Z,31.3298
2019-04-22T14:03:04.612Z,30.4372
2019-04-22T14:04:07.319Z,30.7546
2019-04-22T14:05:10.613Z,31.1696
2019-04-22T14:06:13.300Z,31.5770
2019-04-22T14:07:19.005Z,30.9087
2019-04-22T14:08:23.032Z,31.5679
2019-04-22T14:09:26.469Z,31.0918
2019-04-22T14:10:30.227Z,29.7826
2019-04-22T14:11:43.320Z,29.8161
2019-04-22T14:12:42.542Z,30.0725
2019-04-22T14:13:46.150Z,29.8894
2019-04-22T14:14:50.655Z,30.2052
2019-04-22T14:15:55.344Z,29.8192
2019-04-22T14:16:58.783Z,29.8482
2019-04-22T14:18:03.074Z,30.0298
2019-04-22T14:19:07.723Z,30.2464
2019-04-22T14:20:11.294Z,30.6401
2019-04-22T14:21:14.926Z,30.7042
2019-04-22T14:22:18.329Z,30.5699
2019-04-22T14:23:22.561Z,30.4570
2019-04-22T14:24:26.009Z,30.6020
2019-04-22T14:25:30.481Z,30.8766
2019-04-22T14:26:44.254Z,31.1238
2019-04-22T14:27:52.442Z,30.8446
2019-04-22T14:28:50.328Z,31.1833
2019-04-22T14:29:53.597Z,31.6823
2019-04-22T14:30:56.925Z,32.0760
2019-04-22T14:32:08.623Z,31.5496
2019-04-22T14:33:09.766Z,32.1813
2019-04-22T14:34:13.836Z,32.4392
2019-04-22T14:35:18.542Z,31.9356
2019-04-22T14:36:23.401Z,32.1035
2019-04-22T14:37:27.728Z,32.4102
2019-04-22T14:38:32.396Z,32.8786
2019-04-22T14:39:35.772Z,33.3806
2019-04-22T14:40:41.433Z,33.4508
2019-04-22T14:43:17.591Z,33.8994
2019-04-22T14:44:12.633Z,33.5592
2019-04-22T14:45:05.180Z,33.0373
2019-04-22T14:45:42.298Z,32.8557
2019-04-22T14:46:51.157Z,31.5557
2019-04-22T14:47:58.197Z,31.7479
2019-04-22T14:48:57.330Z,32.3110
2019-04-22T14:50:05.025Z,32.4163
2019-04-22T14:51:07.719Z,32.6726
2019-04-22T14:52:21.573Z,32.9015
2019-04-22T14:53:27.567Z,33.3318
2019-04-22T14:54:31.298Z,32.8511
2019-04-22T14:55:25.931Z,33.2815
2019-04-22T14:56:30.565Z,33.3898
2019-04-22T14:57:34.290Z,32.6131
2019-04-22T14:58:40.563Z,32.7230
2019-04-22T14:59:44.302Z,33.0236
2019-04-22T15:00:49.089Z,33.0114
2019-04-22T15:01:53.928Z,32.5383
2019-04-22T15:02:57.593Z,32.8511
2019-04-22T15:04:02.822Z,33.0282
2019-04-22T15:05:06.315Z,32.6451
2019-04-22T15:06:10.526Z,32.5246
2019-04-22T15:07:14.846Z,32.9931
2019-04-22T15:08:19.160Z,33.2128
2019-04-22T15:09:24.001Z,33.0968
2019-04-22T15:10:28.220Z,32.7947
2019-04-22T15:11:43.695Z,33.2570
2019-04-22T15:12:46.127Z,33.3410